首页
METAR-TAF:

METAR-TAF

机场 :

瓦爾納, 保加利亚

纬度: 43-12N, 经度: 027-55E, 海拔: 41米

当前天气观测

该预报发布于13分钟前的09:30 UTC
风速13节,风向东南
温度 32°C
湿度 43%
气压 1010 hPa
能见度10公里或以上
少量云层高于4500英尺

METAR: LBWN 200930Z 13013KT 9999 FEW045 32/18 Q1010 NOSIG

时间: 12:43 (09:43 UTC)

预报

该预报发布于4小时和43分钟前的05:00 UTC
预报有效从20日的 06点(UTC)到 21日的 06点(UTC)
风速10节,风向
能见度10公里或以上
散云层高于4500英尺
成为
从 20日的 07点(UTC)到 20日的 09点(UTC)
风速12节,风向东转东南
几率 40% :
短暂存在
从 20日的 10点(UTC)到 20日的 15点(UTC)
能見度: 5000
散云层高于3000英尺, 积雨云.
多云层高于4500英尺
雷暴, 雨
成为
从 20日的 18点(UTC)到 20日的 20点(UTC)
风速4节,风向多变

TAF: LBWN 200500Z 2006/2106 01010KT 9999 SCT045 BECMG 2007/2009 12012KT PROB40 TEMPO 2010/2015 5000 TSRA SCT030CB BKN045 BECMG 2018/2020 VRB04KT

超过4000个机场的气象观测和天气预报(METAR&TAF报告)。

可查询的气象台以黄色和红色小点在地图上表示。

将鼠标移到小点上方,可查看气象台名称。

然后点击查看天气观测和预报。

如需切换地图:点击带黑十字的绿色按钮放大地图;点击带横线的绿色按钮缩小地图;或者点击绿色箭头查看邻近地区的地图。


METAR-TAF: